sensor_id;sensor_type;location;lat;lon;timestamp;temperature;humidity
66610;DHT22;53468;48.276;14.416;2023-06-22T04:47:01;19.00;99.90
66610;DHT22;53468;48.276;14.416;2023-06-22T04:52:19;19.20;99.90
66610;DHT22;53468;48.276;14.416;2023-06-22T04:57:35;19.40;99.90
66610;DHT22;53468;48.276;14.416;2023-06-22T05:03:07;19.60;99.90
66610;DHT22;53468;48.276;14.416;2023-06-22T05:08:13;19.70;99.90
66610;DHT22;53468;48.276;14.416;2023-06-22T05:13:15;19.80;99.90
66610;DHT22;53468;48.276;14.416;2023-06-22T05:18:22;20.00;99.90
66610;DHT22;53468;48.276;14.416;2023-06-22T05:23:24;20.10;99.90
66610;DHT22;53468;48.276;14.416;2023-06-22T05:28:28;20.20;99.90
66610;DHT22;53468;48.276;14.416;2023-06-22T05:33:34;20.40;99.90
66610;DHT22;53468;48.276;14.416;2023-06-22T05:38:37;20.50;99.90
66610;DHT22;53468;48.276;14.416;2023-06-22T05:43:39;20.70;99.90
66610;DHT22;53468;48.276;14.416;2023-06-22T05:48:42;20.80;99.90
66610;DHT22;53468;48.276;14.416;2023-06-22T05:53:46;21.20;99.90
66610;DHT22;53468;48.276;14.416;2023-06-22T05:58:50;21.40;99.90
66610;DHT22;53468;48.276;14.416;2023-06-22T06:03:54;21.40;99.90
66610;DHT22;53468;48.276;14.416;2023-06-22T06:08:56;21.60;99.90
66610;DHT22;53468;48.276;14.416;2023-06-22T06:13:59;21.90;99.90
66610;DHT22;53468;48.276;14.416;2023-06-22T06:19:04;22.10;99.90
66610;DHT22;53468;48.276;14.416;2023-06-22T06:24:06;22.20;99.90
66610;DHT22;53468;48.276;14.416;2023-06-22T06:29:08;22.50;99.90
66610;DHT22;53468;48.276;14.416;2023-06-22T06:34:12;22.80;99.90
66610;DHT22;53468;48.276;14.416;2023-06-22T06:39:14;23.60;99.90
66610;DHT22;53468;48.276;14.416;2023-06-22T06:44:21;24.70;99.90
66610;DHT22;53468;48.276;14.416;2023-06-22T06:49:24;25.60;99.90
66610;DHT22;53468;48.276;14.416;2023-06-22T06:54:26;26.20;99.90
66610;DHT22;53468;48.276;14.416;2023-06-22T06:59:28;26.60;99.90
66610;DHT22;53468;48.276;14.416;2023-06-22T07:04:32;27.20;99.90
66610;DHT22;53468;48.276;14.416;2023-06-22T07:09:34;27.60;99.90
66610;DHT22;53468;48.276;14.416;2023-06-22T07:14:36;28.00;99.90
66610;DHT22;53468;48.276;14.416;2023-06-22T07:19:40;28.30;99.90
66610;DHT22;53468;48.276;14.416;2023-06-22T07:24:42;28.50;98.80
66610;DHT22;53468;48.276;14.416;2023-06-22T07:29:44;29.00;99.30
66610;DHT22;53468;48.276;14.416;2023-06-22T07:34:48;29.40;99.90
66610;DHT22;53468;48.276;14.416;2023-06-22T07:39:51;29.60;97.40
66610;DHT22;53468;48.276;14.416;2023-06-22T07:44:54;30.00;99.50
66610;DHT22;53468;48.276;14.416;2023-06-22T07:49:59;30.30;99.10
66610;DHT22;53468;48.276;14.416;2023-06-22T07:55:02;30.40;96.70
66610;DHT22;53468;48.276;14.416;2023-06-22T08:00:08;30.70;95.80
66610;DHT22;53468;48.276;14.416;2023-06-22T08:05:17;30.80;96.60
66610;DHT22;53468;48.276;14.416;2023-06-22T08:10:19;30.70;96.50
66610;DHT22;53468;48.276;14.416;2023-06-22T08:15:21;30.60;97.80
66610;DHT22;53468;48.276;14.416;2023-06-22T08:20:26;30.60;96.90
66610;DHT22;53468;48.276;14.416;2023-06-22T08:25:28;30.90;96.10
66610;DHT22;53468;48.276;14.416;2023-06-22T08:30:30;30.80;97.70
66610;DHT22;53468;48.276;14.416;2023-06-22T08:35:33;30.80;96.90
66610;DHT22;53468;48.276;14.416;2023-06-22T08:40:35;30.80;98.00
66610;DHT22;53468;48.276;14.416;2023-06-22T08:45:37;30.40;97.30
66610;DHT22;53468;48.276;14.416;2023-06-22T08:50:41;30.20;98.50
66610;DHT22;53468;48.276;14.416;2023-06-22T08:55:43;30.70;98.60
66610;DHT22;53468;48.276;14.416;2023-06-22T09:00:45;30.80;98.30
66610;DHT22;53468;48.276;14.416;2023-06-22T09:05:49;30.90;96.80
66610;DHT22;53468;48.276;14.416;2023-06-22T09:10:52;31.10;98.20
66610;DHT22;53468;48.276;14.416;2023-06-22T09:15:54;31.20;97.90
66610;DHT22;53468;48.276;14.416;2023-06-22T09:20:57;31.50;97.80
66610;DHT22;53468;48.276;14.416;2023-06-22T09:25:59;31.30;94.70
66610;DHT22;53468;48.276;14.416;2023-06-22T09:31:01;31.30;97.00
66610;DHT22;53468;48.276;14.416;2023-06-22T09:36:05;31.40;96.60
66610;DHT22;53468;48.276;14.416;2023-06-22T09:41:08;31.40;96.10
66610;DHT22;53468;48.276;14.416;2023-06-22T09:46:10;31.50;96.20
66610;DHT22;53468;48.276;14.416;2023-06-22T09:51:14;31.50;96.60
66610;DHT22;53468;48.276;14.416;2023-06-22T09:56:16;31.60;95.30
66610;DHT22;53468;48.276;14.416;2023-06-22T10:01:18;31.80;96.20
66610;DHT22;53468;48.276;14.416;2023-06-22T10:06:22;31.90;95.50
66610;DHT22;53468;48.276;14.416;2023-06-22T10:11:25;31.90;96.10
66610;DHT22;53468;48.276;14.416;2023-06-22T10:16:31;32.20;97.30
66610;DHT22;53468;48.276;14.416;2023-06-22T10:21:34;32.10;96.50
66610;DHT22;53468;48.276;14.416;2023-06-22T10:26:37;32.00;94.00
66610;DHT22;53468;48.276;14.416;2023-06-22T10:31:38;31.90;94.20
66610;DHT22;53468;48.276;14.416;2023-06-22T10:36:42;32.10;93.70
66610;DHT22;53468;48.276;14.416;2023-06-22T10:41:44;32.10;93.80
66610;DHT22;53468;48.276;14.416;2023-06-22T10:46:46;32.10;93.80
66610;DHT22;53468;48.276;14.416;2023-06-22T10:51:49;32.00;94.30
66610;DHT22;53468;48.276;14.416;2023-06-22T10:56:51;32.30;94.70
66610;DHT22;53468;48.276;14.416;2023-06-22T11:01:53;32.20;95.30
66610;DHT22;53468;48.276;14.416;2023-06-22T11:06:58;32.20;95.00
66610;DHT22;53468;48.276;14.416;2023-06-22T11:12:01;32.30;93.50
66610;DHT22;53468;48.276;14.416;2023-06-22T11:17:03;32.50;95.80
66610;DHT22;53468;48.276;14.416;2023-06-22T11:22:07;32.50;95.60
66610;DHT22;53468;48.276;14.416;2023-06-22T11:27:10;32.40;92.90
66610;DHT22;53468;48.276;14.416;2023-06-22T11:32:12;32.30;94.50
66610;DHT22;53468;48.276;14.416;2023-06-22T11:37:16;32.30;96.10
66610;DHT22;53468;48.276;14.416;2023-06-22T11:42:18;32.30;93.20
66610;DHT22;53468;48.276;14.416;2023-06-22T11:47:21;32.10;95.60
66610;DHT22;53468;48.276;14.416;2023-06-22T11:52:27;32.20;95.30
66610;DHT22;53468;48.276;14.416;2023-06-22T11:57:29;32.20;95.20
66610;DHT22;53468;48.276;14.416;2023-06-22T12:02:31;32.00;95.40
66610;DHT22;53468;48.276;14.416;2023-06-22T12:07:35;32.10;95.60
66610;DHT22;53468;48.276;14.416;2023-06-22T12:12:38;32.30;94.70
66610;DHT22;53468;48.276;14.416;2023-06-22T12:17:40;32.40;95.10
66610;DHT22;53468;48.276;14.416;2023-06-22T12:22:43;32.30;95.50
66610;DHT22;53468;48.276;14.416;2023-06-22T12:27:45;32.30;96.30
66610;DHT22;53468;48.276;14.416;2023-06-22T12:32:48;32.10;96.00
66610;DHT22;53468;48.276;14.416;2023-06-22T12:37:52;32.40;94.80
66610;DHT22;53468;48.276;14.416;2023-06-22T12:42:54;32.50;96.60
66610;DHT22;53468;48.276;14.416;2023-06-22T12:47:56;32.60;96.70
66610;DHT22;53468;48.276;14.416;2023-06-22T12:53:00;32.60;95.90
66610;DHT22;53468;48.276;14.416;2023-06-22T12:58:03;32.60;94.40
66610;DHT22;53468;48.276;14.416;2023-06-22T13:03:05;32.40;94.70
66610;DHT22;53468;48.276;14.416;2023-06-22T13:08:09;32.30;94.80
66610;DHT22;53468;48.276;14.416;2023-06-22T13:13:11;32.40;95.30
66610;DHT22;53468;48.276;14.416;2023-06-22T13:18:14;32.30;93.90
66610;DHT22;53468;48.276;14.416;2023-06-22T13:23:18;32.50;95.20
66610;DHT22;53468;48.276;14.416;2023-06-22T13:28:20;32.50;97.70
66610;DHT22;53468;48.276;14.416;2023-06-22T13:33:22;32.20;95.30
66610;DHT22;53468;48.276;14.416;2023-06-22T13:38:26;32.30;97.20
66610;DHT22;53468;48.276;14.416;2023-06-22T13:43:28;32.40;96.70
66610;DHT22;53468;48.276;14.416;2023-06-22T13:48:30;32.30;97.20
66610;DHT22;53468;48.276;14.416;2023-06-22T13:53:34;32.30;97.40
66610;DHT22;53468;48.276;14.416;2023-06-22T13:58:36;32.10;94.70
66610;DHT22;53468;48.276;14.416;2023-06-22T14:03:38;32.30;96.00
66610;DHT22;53468;48.276;14.416;2023-06-22T14:08:43;32.40;96.10
66610;DHT22;53468;48.276;14.416;2023-06-22T14:13:45;32.40;96.70
66610;DHT22;53468;48.276;14.416;2023-06-22T14:18:47;32.30;95.00
66610;DHT22;53468;48.276;14.416;2023-06-22T14:23:50;32.30;94.60
66610;DHT22;53468;48.276;14.416;2023-06-22T14:28:53;32.10;96.30
66610;DHT22;53468;48.276;14.416;2023-06-22T14:33:55;32.20;95.70
66610;DHT22;53468;48.276;14.416;2023-06-22T14:38:58;32.10;95.60
66610;DHT22;53468;48.276;14.416;2023-06-22T14:44:01;32.20;95.40
66610;DHT22;53468;48.276;14.416;2023-06-22T14:49:03;32.00;95.00
66610;DHT22;53468;48.276;14.416;2023-06-22T14:54:06;32.10;96.40
66610;DHT22;53468;48.276;14.416;2023-06-22T14:59:09;32.10;96.30
66610;DHT22;53468;48.276;14.416;2023-06-22T15:04:11;32.10;95.00
66610;DHT22;53468;48.276;14.416;2023-06-22T15:09:15;32.10;95.10
66610;DHT22;53468;48.276;14.416;2023-06-22T15:14:18;32.00;95.00
66610;DHT22;53468;48.276;14.416;2023-06-22T15:19:20;31.90;96.70
66610;DHT22;53468;48.276;14.416;2023-06-22T15:24:26;31.90;96.90
66610;DHT22;53468;48.276;14.416;2023-06-22T15:29:28;31.90;95.40
66610;DHT22;53468;48.276;14.416;2023-06-22T15:34:34;31.90;96.30
66610;DHT22;53468;48.276;14.416;2023-06-22T15:39:38;31.80;97.00
66610;DHT22;53468;48.276;14.416;2023-06-22T15:44:40;31.80;97.40
66610;DHT22;53468;48.276;14.416;2023-06-22T15:49:42;31.70;97.00
66610;DHT22;53468;48.276;14.416;2023-06-22T15:54:45;31.60;96.90
66610;DHT22;53468;48.276;14.416;2023-06-22T15:59:47;31.70;95.90
66610;DHT22;53468;48.276;14.416;2023-06-22T16:04:49;31.70;96.40
66610;DHT22;53468;48.276;14.416;2023-06-22T16:09:55;31.80;97.00
66610;DHT22;53468;48.276;14.416;2023-06-22T16:14:57;31.80;96.50
66610;DHT22;53468;48.276;14.416;2023-06-22T16:19:59;31.90;97.30
66610;DHT22;53468;48.276;14.416;2023-06-22T16:25:02;31.90;97.10
66610;DHT22;53468;48.276;14.416;2023-06-22T16:30:06;31.80;97.00
66610;DHT22;53468;48.276;14.416;2023-06-22T16:35:09;31.70;97.30
66610;DHT22;53468;48.276;14.416;2023-06-22T16:40:12;31.70;97.40
66610;DHT22;53468;48.276;14.416;2023-06-22T16:45:15;31.50;97.00
66610;DHT22;53468;48.276;14.416;2023-06-22T16:50:18;31.40;97.70
66610;DHT22;53468;48.276;14.416;2023-06-22T16:55:24;31.30;98.30
66610;DHT22;53468;48.276;14.416;2023-06-22T17:00:27;31.10;98.70
66610;DHT22;53468;48.276;14.416;2023-06-22T17:05:30;30.90;98.70
66610;DHT22;53468;48.276;14.416;2023-06-22T17:10:34;30.70;98.90
66610;DHT22;53468;48.276;14.416;2023-06-22T17:15:39;30.70;99.00
66610;DHT22;53468;48.276;14.416;2023-06-22T17:20:43;30.50;99.20
66610;DHT22;53468;48.276;14.416;2023-06-22T17:25:47;30.40;99.50
66610;DHT22;53468;48.276;14.416;2023-06-22T17:31:08;30.40;99.90
66610;DHT22;53468;48.276;14.416;2023-06-22T17:36:11;30.40;99.90
66610;DHT22;53468;48.276;14.416;2023-06-22T17:41:15;30.30;99.90
66610;DHT22;53468;48.276;14.416;2023-06-22T17:46:18;30.20;99.90
66610;DHT22;53468;48.276;14.416;2023-06-22T17:51:20;30.10;99.90
66610;DHT22;53468;48.276;14.416;2023-06-22T17:56:24;30.00;99.90
66610;DHT22;53468;48.276;14.416;2023-06-22T18:01:28;30.00;99.90
66610;DHT22;53468;48.276;14.416;2023-06-22T18:06:35;29.90;99.90
66610;DHT22;53468;48.276;14.416;2023-06-22T18:11:43;29.70;99.90
66610;DHT22;53468;48.276;14.416;2023-06-22T18:16:47;29.50;99.90
66610;DHT22;53468;48.276;14.416;2023-06-22T18:21:49;29.20;99.90
66610;DHT22;53468;48.276;14.416;2023-06-22T18:26:53;28.90;99.90
66610;DHT22;53468;48.276;14.416;2023-06-22T18:31:57;28.70;99.90
66610;DHT22;53468;48.276;14.416;2023-06-22T18:37:01;28.50;99.90
66610;DHT22;53468;48.276;14.416;2023-06-22T18:42:08;28.20;99.90
66610;DHT22;53468;48.276;14.416;2023-06-22T18:47:11;28.00;99.90
66610;DHT22;53468;48.276;14.416;2023-06-22T18:52:15;27.90;99.90
66610;DHT22;53468;48.276;14.416;2023-06-22T18:57:22;27.60;99.90
66610;DHT22;53468;48.276;14.416;2023-06-22T19:02:39;27.60;99.90
66610;DHT22;53468;48.276;14.416;2023-06-22T19:07:57;27.40;99.90
66610;DHT22;53468;48.276;14.416;2023-06-22T19:13:26;27.20;99.90
66610;DHT22;53468;48.276;14.416;2023-06-22T19:18:32;27.00;99.90
66610;DHT22;53468;48.276;14.416;2023-06-22T19:23:38;26.80;99.90
66610;DHT22;53468;48.276;14.416;2023-06-22T19:28:47;26.70;99.90
66610;DHT22;53468;48.276;14.416;2023-06-22T19:33:52;26.60;99.90
66610;DHT22;53468;48.276;14.416;2023-06-22T19:39:13;26.40;99.90
66610;DHT22;53468;48.276;14.416;2023-06-22T19:44:30;26.20;99.90
66610;DHT22;53468;48.276;14.416;2023-06-22T19:49:47;26.10;99.90
66610;DHT22;53468;48.276;14.416;2023-06-22T19:55:11;26.10;99.90
66610;DHT22;53468;48.276;14.416;2023-06-22T20:00:34;26.00;99.90
66610;DHT22;53468;48.276;14.416;2023-06-22T20:05:45;25.90;99.90
66610;DHT22;53468;48.276;14.416;2023-06-22T20:10:56;25.80;99.90
66610;DHT22;53468;48.276;14.416;2023-06-22T20:16:10;25.70;99.90
66610;DHT22;53468;48.276;14.416;2023-06-22T20:21:18;25.60;99.90
66610;DHT22;53468;48.276;14.416;2023-06-22T20:26:24;25.60;99.90
66610;DHT22;53468;48.276;14.416;2023-06-22T20:31:35;25.40;99.90
66610;DHT22;53468;48.276;14.416;2023-06-22T20:36:45;25.30;99.90
66610;DHT22;53468;48.276;14.416;2023-06-22T20:42:29;25.20;99.90
66610;DHT22;53468;48.276;14.416;2023-06-22T20:47:58;25.10;99.90
66610;DHT22;53468;48.276;14.416;2023-06-22T20:53:17;25.00;99.90
66610;DHT22;53468;48.276;14.416;2023-06-22T20:58:24;24.90;99.90
66610;DHT22;53468;48.276;14.416;2023-06-22T21:03:53;24.90;99.90
66610;DHT22;53468;48.276;14.416;2023-06-22T21:09:31;24.70;99.90
66610;DHT22;53468;48.276;14.416;2023-06-22T21:14:59;24.60;99.90
66610;DHT22;53468;48.276;14.416;2023-06-22T21:20:48;24.50;99.90
66610;DHT22;53468;48.276;14.416;2023-06-22T21:26:18;24.40;99.90
66610;DHT22;53468;48.276;14.416;2023-06-22T21:31:49;24.40;99.90
66610;DHT22;53468;48.276;14.416;2023-06-22T21:54:27;24.10;99.90
66610;DHT22;53468;48.276;14.416;2023-06-22T21:59:42;24.00;99.90
66610;DHT22;53468;48.276;14.416;2023-06-22T22:05:16;23.90;99.90
66610;DHT22;53468;48.276;14.416;2023-06-22T22:10:45;23.90;99.90
66610;DHT22;53468;48.276;14.416;2023-06-22T22:16:09;23.80;99.90
66610;DHT22;53468;48.276;14.416;2023-06-22T22:21:28;23.70;99.90
66610;DHT22;53468;48.276;14.416;2023-06-22T22:33:01;23.50;99.90
66610;DHT22;53468;48.276;14.416;2023-06-22T22:38:52;23.60;99.90
66610;DHT22;53468;48.276;14.416;2023-06-22T22:44:25;23.50;99.90
66610;DHT22;53468;48.276;14.416;2023-06-22T22:55:56;23.50;99.90
66610;DHT22;53468;48.276;14.416;2023-06-22T23:01:36;23.70;99.90
66610;DHT22;53468;48.276;14.416;2023-06-22T23:07:09;23.90;99.90
66610;DHT22;53468;48.276;14.416;2023-06-22T23:12:58;24.10;99.90
66610;DHT22;53468;48.276;14.416;2023-06-22T23:18:23;24.30;99.90
66610;DHT22;53468;48.276;14.416;2023-06-22T23:24:02;24.70;99.90
66610;DHT22;53468;48.276;14.416;2023-06-22T23:35:34;24.80;99.90
66610;DHT22;53468;48.276;14.416;2023-06-22T23:41:14;24.50;99.90
66610;DHT22;53468;48.276;14.416;2023-06-22T23:46:55;24.50;99.90
66610;DHT22;53468;48.276;14.416;2023-06-22T23:52:43;24.40;99.90
66610;DHT22;53468;48.276;14.416;2023-06-22T23:58:36;24.30;99.90
